Aviation Digital Data Service (ADDS)

Output produced by TAFs form (1738 UTC 21 April 2018)
found at http://aviationweather.gov/adds/tafs/
 
RJFU 211200Z 07003KT CAVOK 18/15 Q1020
TAF RJFU 211705Z 2118/2300 14008KT 9999 FEW040 
     BECMG 2204/2206 24006KT 
     BECMG 2209/2212 14008KT